sensor_id;sensor_type;location;lat;lon;timestamp;P1;durP1;ratioP1;P2;durP2;ratioP2
19776;SDS011;10047;42.490;26.012;2022-12-11T00:01:29;29.02;;;7.32;;
19776;SDS011;10047;42.490;26.012;2022-12-11T00:03:54;28.35;;;7.15;;
19776;SDS011;10047;42.490;26.012;2022-12-11T00:06:21;25.13;;;6.80;;
19776;SDS011;10047;42.490;26.012;2022-12-11T00:08:49;20.83;;;6.90;;
19776;SDS011;10047;42.490;26.012;2022-12-11T00:11:16;23.48;;;7.25;;
19776;SDS011;10047;42.490;26.012;2022-12-11T00:13:41;24.17;;;6.57;;
19776;SDS011;10047;42.490;26.012;2022-12-11T00:16:07;23.65;;;7.15;;
19776;SDS011;10047;42.490;26.012;2022-12-11T00:18:33;26.20;;;7.00;;
19776;SDS011;10047;42.490;26.012;2022-12-11T00:21:00;26.50;;;7.32;;
19776;SDS011;10047;42.490;26.012;2022-12-11T00:23:29;22.35;;;6.80;;
19776;SDS011;10047;42.490;26.012;2022-12-11T00:25:54;23.67;;;6.97;;
19776;SDS011;10047;42.490;26.012;2022-12-11T00:28:20;22.63;;;6.72;;
19776;SDS011;10047;42.490;26.012;2022-12-11T00:30:46;27.98;;;6.72;;
19776;SDS011;10047;42.490;26.012;2022-12-11T00:33:12;27.15;;;7.05;;
19776;SDS011;10047;42.490;26.012;2022-12-11T00:35:39;24.85;;;7.22;;
19776;SDS011;10047;42.490;26.012;2022-12-11T00:38:06;30.63;;;6.93;;
19776;SDS011;10047;42.490;26.012;2022-12-11T00:40:32;23.33;;;6.65;;
19776;SDS011;10047;42.490;26.012;2022-12-11T00:42:58;27.38;;;7.20;;
19776;SDS011;10047;42.490;26.012;2022-12-11T00:45:24;25.27;;;7.20;;
19776;SDS011;10047;42.490;26.012;2022-12-11T00:47:49;25.67;;;7.75;;
19776;SDS011;10047;42.490;26.012;2022-12-11T00:50:15;29.48;;;7.35;;
19776;SDS011;10047;42.490;26.012;2022-12-11T00:52:40;28.88;;;7.32;;
19776;SDS011;10047;42.490;26.012;2022-12-11T00:55:06;29.90;;;7.45;;
19776;SDS011;10047;42.490;26.012;2022-12-11T00:57:31;30.75;;;7.53;;
19776;SDS011;10047;42.490;26.012;2022-12-11T00:59:57;38.45;;;8.30;;
19776;SDS011;10047;42.490;26.012;2022-12-11T01:02:22;28.67;;;7.40;;
19776;SDS011;10047;42.490;26.012;2022-12-11T01:04:47;30.52;;;7.63;;
19776;SDS011;10047;42.490;26.012;2022-12-11T01:07:13;25.15;;;7.07;;
19776;SDS011;10047;42.490;26.012;2022-12-11T01:09:38;26.75;;;7.22;;
19776;SDS011;10047;42.490;26.012;2022-12-11T01:12:22;27.00;;;7.07;;
19776;SDS011;10047;42.490;26.012;2022-12-11T01:14:48;31.10;;;7.97;;
19776;SDS011;10047;42.490;26.012;2022-12-11T01:17:13;34.03;;;7.85;;
19776;SDS011;10047;42.490;26.012;2022-12-11T01:19:38;30.58;;;8.20;;
19776;SDS011;10047;42.490;26.012;2022-12-11T01:22:04;31.95;;;7.43;;
19776;SDS011;10047;42.490;26.012;2022-12-11T01:24:29;34.88;;;6.95;;
19776;SDS011;10047;42.490;26.012;2022-12-11T01:26:55;27.13;;;7.35;;
19776;SDS011;10047;42.490;26.012;2022-12-11T01:29:20;32.58;;;7.35;;
19776;SDS011;10047;42.490;26.012;2022-12-11T01:31:45;27.50;;;6.63;;
19776;SDS011;10047;42.490;26.012;2022-12-11T01:34:11;32.15;;;7.50;;
19776;SDS011;10047;42.490;26.012;2022-12-11T01:36:36;31.92;;;7.53;;
19776;SDS011;10047;42.490;26.012;2022-12-11T01:39:02;29.15;;;7.18;;
19776;SDS011;10047;42.490;26.012;2022-12-11T01:41:27;25.83;;;7.63;;
19776;SDS011;10047;42.490;26.012;2022-12-11T01:46:30;29.23;;;7.10;;
19776;SDS011;10047;42.490;26.012;2022-12-11T01:48:58;32.85;;;7.15;;
19776;SDS011;10047;42.490;26.012;2022-12-11T01:51:24;32.70;;;8.13;;
19776;SDS011;10047;42.490;26.012;2022-12-11T01:53:56;31.60;;;8.05;;
19776;SDS011;10047;42.490;26.012;2022-12-11T01:56:28;32.13;;;7.90;;
19776;SDS011;10047;42.490;26.012;2022-12-11T01:58:56;32.92;;;7.22;;
19776;SDS011;10047;42.490;26.012;2022-12-11T02:01:38;26.17;;;6.75;;
19776;SDS011;10047;42.490;26.012;2022-12-11T02:04:06;32.40;;;7.18;;
19776;SDS011;10047;42.490;26.012;2022-12-11T02:09:02;24.20;;;6.70;;
19776;SDS011;10047;42.490;26.012;2022-12-11T02:11:34;26.77;;;6.57;;
19776;SDS011;10047;42.490;26.012;2022-12-11T02:14:09;24.23;;;5.45;;
19776;SDS011;10047;42.490;26.012;2022-12-11T02:16:45;21.15;;;5.10;;
19776;SDS011;10047;42.490;26.012;2022-12-11T02:19:17;18.75;;;5.07;;
19776;SDS011;10047;42.490;26.012;2022-12-11T02:21:53;19.17;;;4.95;;
19776;SDS011;10047;42.490;26.012;2022-12-11T02:26:49;19.20;;;5.13;;
19776;SDS011;10047;42.490;26.012;2022-12-11T02:29:45;17.50;;;4.45;;
19776;SDS011;10047;42.490;26.012;2022-12-11T02:32:15;17.77;;;4.80;;
19776;SDS011;10047;42.490;26.012;2022-12-11T02:34:51;20.33;;;4.90;;
19776;SDS011;10047;42.490;26.012;2022-12-11T02:37:20;20.63;;;4.85;;
19776;SDS011;10047;42.490;26.012;2022-12-11T02:39:51;23.05;;;6.07;;
19776;SDS011;10047;42.490;26.012;2022-12-11T02:42:18;25.50;;;5.50;;
19776;SDS011;10047;42.490;26.012;2022-12-11T02:44:45;17.83;;;5.40;;
19776;SDS011;10047;42.490;26.012;2022-12-11T02:47:13;18.27;;;5.45;;
19776;SDS011;10047;42.490;26.012;2022-12-11T02:49:42;24.85;;;5.80;;
19776;SDS011;10047;42.490;26.012;2022-12-11T02:52:11;20.85;;;5.22;;
19776;SDS011;10047;42.490;26.012;2022-12-11T02:54:41;20.17;;;5.47;;
19776;SDS011;10047;42.490;26.012;2022-12-11T02:57:21;18.67;;;5.55;;
19776;SDS011;10047;42.490;26.012;2022-12-11T02:59:51;27.48;;;6.53;;
19776;SDS011;10047;42.490;26.012;2022-12-11T03:02:17;19.90;;;5.82;;
19776;SDS011;10047;42.490;26.012;2022-12-11T03:04:43;25.25;;;5.90;;
19776;SDS011;10047;42.490;26.012;2022-12-11T03:07:15;25.92;;;6.50;;
19776;SDS011;10047;42.490;26.012;2022-12-11T03:09:47;22.67;;;6.43;;
19776;SDS011;10047;42.490;26.012;2022-12-11T03:12:14;23.58;;;5.75;;
19776;SDS011;10047;42.490;26.012;2022-12-11T03:14:43;22.00;;;6.22;;
19776;SDS011;10047;42.490;26.012;2022-12-11T03:19:45;27.40;;;6.10;;
19776;SDS011;10047;42.490;26.012;2022-12-11T03:25:11;20.95;;;6.03;;
19776;SDS011;10047;42.490;26.012;2022-12-11T03:27:54;20.20;;;6.40;;
19776;SDS011;10047;42.490;26.012;2022-12-11T03:30:31;26.48;;;6.28;;
19776;SDS011;10047;42.490;26.012;2022-12-11T03:33:02;22.48;;;6.07;;
19776;SDS011;10047;42.490;26.012;2022-12-11T03:35:36;25.75;;;6.40;;
19776;SDS011;10047;42.490;26.012;2022-12-11T03:38:07;27.58;;;6.07;;
19776;SDS011;10047;42.490;26.012;2022-12-11T03:40:35;25.73;;;6.68;;
19776;SDS011;10047;42.490;26.012;2022-12-11T03:43:05;25.10;;;6.78;;
19776;SDS011;10047;42.490;26.012;2022-12-11T03:45:31;26.58;;;6.90;;
19776;SDS011;10047;42.490;26.012;2022-12-11T03:47:58;24.27;;;6.63;;
19776;SDS011;10047;42.490;26.012;2022-12-11T03:50:26;28.13;;;7.03;;
19776;SDS011;10047;42.490;26.012;2022-12-11T03:52:54;27.08;;;7.18;;
19776;SDS011;10047;42.490;26.012;2022-12-11T03:55:21;32.50;;;7.38;;
19776;SDS011;10047;42.490;26.012;2022-12-11T03:57:47;27.52;;;6.82;;
19776;SDS011;10047;42.490;26.012;2022-12-11T04:00:14;26.73;;;6.55;;
19776;SDS011;10047;42.490;26.012;2022-12-11T04:02:42;26.08;;;5.93;;
19776;SDS011;10047;42.490;26.012;2022-12-11T04:05:08;21.70;;;6.35;;
19776;SDS011;10047;42.490;26.012;2022-12-11T04:07:34;23.65;;;5.60;;
19776;SDS011;10047;42.490;26.012;2022-12-11T04:10:00;25.08;;;7.40;;
19776;SDS011;10047;42.490;26.012;2022-12-11T04:12:26;26.15;;;7.03;;
19776;SDS011;10047;42.490;26.012;2022-12-11T04:14:51;31.17;;;7.15;;
19776;SDS011;10047;42.490;26.012;2022-12-11T04:17:26;28.52;;;6.78;;
19776;SDS011;10047;42.490;26.012;2022-12-11T04:20:10;25.85;;;6.63;;
19776;SDS011;10047;42.490;26.012;2022-12-11T04:22:55;23.90;;;6.40;;
19776;SDS011;10047;42.490;26.012;2022-12-11T04:25:39;34.22;;;7.55;;
19776;SDS011;10047;42.490;26.012;2022-12-11T04:28:04;29.10;;;7.38;;
19776;SDS011;10047;42.490;26.012;2022-12-11T04:30:30;27.33;;;7.22;;
19776;SDS011;10047;42.490;26.012;2022-12-11T04:32:55;25.40;;;7.07;;
19776;SDS011;10047;42.490;26.012;2022-12-11T04:35:21;22.67;;;6.45;;
19776;SDS011;10047;42.490;26.012;2022-12-11T04:37:46;23.75;;;7.22;;
19776;SDS011;10047;42.490;26.012;2022-12-11T04:40:13;28.70;;;6.18;;
19776;SDS011;10047;42.490;26.012;2022-12-11T04:42:40;21.92;;;6.63;;
19776;SDS011;10047;42.490;26.012;2022-12-11T04:45:06;20.60;;;6.13;;
19776;SDS011;10047;42.490;26.012;2022-12-11T04:47:36;23.63;;;6.88;;
19776;SDS011;10047;42.490;26.012;2022-12-11T04:50:03;25.40;;;6.03;;
19776;SDS011;10047;42.490;26.012;2022-12-11T04:52:31;24.40;;;6.43;;
19776;SDS011;10047;42.490;26.012;2022-12-11T04:54:57;31.00;;;7.22;;
19776;SDS011;10047;42.490;26.012;2022-12-11T04:57:22;19.77;;;6.13;;
19776;SDS011;10047;42.490;26.012;2022-12-11T04:59:47;23.50;;;5.95;;
19776;SDS011;10047;42.490;26.012;2022-12-11T05:02:13;21.65;;;5.72;;
19776;SDS011;10047;42.490;26.012;2022-12-11T05:04:39;23.20;;;6.50;;
19776;SDS011;10047;42.490;26.012;2022-12-11T05:07:05;21.92;;;6.25;;
19776;SDS011;10047;42.490;26.012;2022-12-11T05:09:31;20.17;;;6.38;;
19776;SDS011;10047;42.490;26.012;2022-12-11T05:11:56;21.48;;;5.40;;
19776;SDS011;10047;42.490;26.012;2022-12-11T05:14:21;18.65;;;5.00;;
19776;SDS011;10047;42.490;26.012;2022-12-11T05:16:47;21.90;;;5.13;;
19776;SDS011;10047;42.490;26.012;2022-12-11T05:19:12;17.77;;;4.72;;
19776;SDS011;10047;42.490;26.012;2022-12-11T05:21:38;18.77;;;4.72;;
19776;SDS011;10047;42.490;26.012;2022-12-11T05:24:03;20.75;;;4.50;;
19776;SDS011;10047;42.490;26.012;2022-12-11T05:26:29;21.13;;;4.35;;
19776;SDS011;10047;42.490;26.012;2022-12-11T05:28:55;17.85;;;4.47;;
19776;SDS011;10047;42.490;26.012;2022-12-11T05:31:24;20.77;;;5.45;;
19776;SDS011;10047;42.490;26.012;2022-12-11T05:33:51;18.55;;;5.15;;
19776;SDS011;10047;42.490;26.012;2022-12-11T05:36:18;19.15;;;4.93;;
19776;SDS011;10047;42.490;26.012;2022-12-11T05:38:46;16.63;;;4.55;;
19776;SDS011;10047;42.490;26.012;2022-12-11T05:41:12;18.50;;;4.90;;
19776;SDS011;10047;42.490;26.012;2022-12-11T05:43:39;15.98;;;4.75;;
19776;SDS011;10047;42.490;26.012;2022-12-11T05:48:44;24.88;;;4.95;;
19776;SDS011;10047;42.490;26.012;2022-12-11T05:51:12;19.13;;;4.88;;
19776;SDS011;10047;42.490;26.012;2022-12-11T05:53:39;26.55;;;5.75;;
19776;SDS011;10047;42.490;26.012;2022-12-11T05:56:09;19.98;;;5.32;;
19776;SDS011;10047;42.490;26.012;2022-12-11T05:58:36;25.02;;;6.05;;
19776;SDS011;10047;42.490;26.012;2022-12-11T06:01:05;26.92;;;7.00;;
19776;SDS011;10047;42.490;26.012;2022-12-11T06:03:32;21.10;;;5.35;;
19776;SDS011;10047;42.490;26.012;2022-12-11T06:06:00;24.75;;;7.68;;
19776;SDS011;10047;42.490;26.012;2022-12-11T06:10:54;21.73;;;5.65;;
19776;SDS011;10047;42.490;26.012;2022-12-11T06:13:20;23.75;;;6.72;;
19776;SDS011;10047;42.490;26.012;2022-12-11T06:15:45;22.52;;;6.30;;
19776;SDS011;10047;42.490;26.012;2022-12-11T06:18:10;22.50;;;5.47;;
19776;SDS011;10047;42.490;26.012;2022-12-11T06:20:36;21.05;;;5.57;;
19776;SDS011;10047;42.490;26.012;2022-12-11T06:23:01;19.13;;;5.43;;
19776;SDS011;10047;42.490;26.012;2022-12-11T06:25:27;22.80;;;5.38;;
19776;SDS011;10047;42.490;26.012;2022-12-11T06:27:53;19.15;;;6.45;;
19776;SDS011;10047;42.490;26.012;2022-12-11T06:30:18;21.02;;;5.25;;
19776;SDS011;10047;42.490;26.012;2022-12-11T06:32:44;19.60;;;5.32;;
19776;SDS011;10047;42.490;26.012;2022-12-11T06:35:10;18.05;;;4.75;;
19776;SDS011;10047;42.490;26.012;2022-12-11T06:37:36;22.35;;;5.80;;
19776;SDS011;10047;42.490;26.012;2022-12-11T06:40:03;21.30;;;6.80;;
19776;SDS011;10047;42.490;26.012;2022-12-11T06:42:29;21.48;;;6.93;;
19776;SDS011;10047;42.490;26.012;2022-12-11T06:44:56;27.25;;;7.55;;
19776;SDS011;10047;42.490;26.012;2022-12-11T06:47:24;23.42;;;7.55;;
19776;SDS011;10047;42.490;26.012;2022-12-11T06:49:50;22.75;;;7.65;;
19776;SDS011;10047;42.490;26.012;2022-12-11T06:52:16;23.33;;;7.97;;
19776;SDS011;10047;42.490;26.012;2022-12-11T06:54:42;26.92;;;11.63;;
19776;SDS011;10047;42.490;26.012;2022-12-11T06:57:07;24.05;;;7.88;;
19776;SDS011;10047;42.490;26.012;2022-12-11T06:59:33;28.70;;;9.77;;
19776;SDS011;10047;42.490;26.012;2022-12-11T07:01:59;32.58;;;12.48;;
19776;SDS011;10047;42.490;26.012;2022-12-11T07:04:24;32.63;;;13.80;;
19776;SDS011;10047;42.490;26.012;2022-12-11T07:06:51;30.67;;;13.88;;
19776;SDS011;10047;42.490;26.012;2022-12-11T07:09:17;32.78;;;13.10;;
19776;SDS011;10047;42.490;26.012;2022-12-11T07:11:43;28.88;;;12.13;;
19776;SDS011;10047;42.490;26.012;2022-12-11T07:14:08;24.15;;;9.50;;
19776;SDS011;10047;42.490;26.012;2022-12-11T07:16:33;25.35;;;8.68;;
19776;SDS011;10047;42.490;26.012;2022-12-11T07:18:59;24.85;;;8.10;;
19776;SDS011;10047;42.490;26.012;2022-12-11T07:21:25;23.55;;;7.85;;
19776;SDS011;10047;42.490;26.012;2022-12-11T07:23:50;20.92;;;8.90;;
19776;SDS011;10047;42.490;26.012;2022-12-11T07:26:17;26.13;;;8.88;;
19776;SDS011;10047;42.490;26.012;2022-12-11T07:28:44;25.10;;;9.25;;
19776;SDS011;10047;42.490;26.012;2022-12-11T07:31:11;23.77;;;10.18;;
19776;SDS011;10047;42.490;26.012;2022-12-11T07:33:38;17.65;;;5.93;;
19776;SDS011;10047;42.490;26.012;2022-12-11T07:36:05;16.80;;;5.72;;
19776;SDS011;10047;42.490;26.012;2022-12-11T07:38:33;20.40;;;7.45;;
19776;SDS011;10047;42.490;26.012;2022-12-11T07:41:00;10.52;;;3.95;;
19776;SDS011;10047;42.490;26.012;2022-12-11T07:43:29;15.93;;;4.80;;
19776;SDS011;10047;42.490;26.012;2022-12-11T07:45:59;18.65;;;6.32;;
19776;SDS011;10047;42.490;26.012;2022-12-11T07:48:45;17.20;;;5.97;;
19776;SDS011;10047;42.490;26.012;2022-12-11T07:51:12;13.70;;;4.07;;
19776;SDS011;10047;42.490;26.012;2022-12-11T07:53:48;23.20;;;7.40;;
19776;SDS011;10047;42.490;26.012;2022-12-11T07:56:14;15.73;;;4.85;;
19776;SDS011;10047;42.490;26.012;2022-12-11T07:58:41;22.15;;;6.50;;
19776;SDS011;10047;42.490;26.012;2022-12-11T08:01:14;16.17;;;5.30;;
19776;SDS011;10047;42.490;26.012;2022-12-11T08:03:50;21.30;;;5.55;;
19776;SDS011;10047;42.490;26.012;2022-12-11T08:06:16;18.70;;;5.97;;
19776;SDS011;10047;42.490;26.012;2022-12-11T08:08:42;24.17;;;10.27;;
19776;SDS011;10047;42.490;26.012;2022-12-11T08:11:09;20.52;;;7.40;;
19776;SDS011;10047;42.490;26.012;2022-12-11T08:13:37;21.40;;;8.68;;
19776;SDS011;10047;42.490;26.012;2022-12-11T08:16:04;17.33;;;7.40;;
19776;SDS011;10047;42.490;26.012;2022-12-11T08:18:31;14.48;;;3.90;;
19776;SDS011;10047;42.490;26.012;2022-12-11T08:20:58;13.07;;;4.07;;
19776;SDS011;10047;42.490;26.012;2022-12-11T08:23:23;16.08;;;4.15;;
19776;SDS011;10047;42.490;26.012;2022-12-11T08:25:49;10.95;;;3.50;;
19776;SDS011;10047;42.490;26.012;2022-12-11T08:28:14;10.60;;;3.35;;
19776;SDS011;10047;42.490;26.012;2022-12-11T08:30:39;17.42;;;5.00;;
19776;SDS011;10047;42.490;26.012;2022-12-11T08:33:05;14.00;;;4.93;;
19776;SDS011;10047;42.490;26.012;2022-12-11T08:35:31;17.33;;;5.68;;
19776;SDS011;10047;42.490;26.012;2022-12-11T08:37:57;11.88;;;3.00;;
19776;SDS011;10047;42.490;26.012;2022-12-11T08:40:22;12.43;;;3.35;;
19776;SDS011;10047;42.490;26.012;2022-12-11T08:42:48;12.80;;;3.85;;
19776;SDS011;10047;42.490;26.012;2022-12-11T08:45:13;15.90;;;4.65;;
19776;SDS011;10047;42.490;26.012;2022-12-11T08:47:39;11.93;;;3.33;;
19776;SDS011;10047;42.490;26.012;2022-12-11T08:50:05;11.73;;;3.88;;
19776;SDS011;10047;42.490;26.012;2022-12-11T08:52:32;9.98;;;3.58;;
19776;SDS011;10047;42.490;26.012;2022-12-11T08:54:58;15.40;;;4.35;;
19776;SDS011;10047;42.490;26.012;2022-12-11T08:57:24;17.30;;;4.78;;
19776;SDS011;10047;42.490;26.012;2022-12-11T08:59:49;17.48;;;5.20;;
19776;SDS011;10047;42.490;26.012;2022-12-11T09:02:14;16.88;;;5.20;;
19776;SDS011;10047;42.490;26.012;2022-12-11T09:04:40;14.90;;;4.25;;
19776;SDS011;10047;42.490;26.012;2022-12-11T09:07:05;17.98;;;4.57;;
19776;SDS011;10047;42.490;26.012;2022-12-11T09:09:31;12.18;;;4.15;;
19776;SDS011;10047;42.490;26.012;2022-12-11T09:11:56;17.73;;;6.00;;
19776;SDS011;10047;42.490;26.012;2022-12-11T09:14:23;16.42;;;4.60;;
19776;SDS011;10047;42.490;26.012;2022-12-11T09:16:48;17.67;;;3.88;;
19776;SDS011;10047;42.490;26.012;2022-12-11T09:19:14;13.38;;;3.72;;
19776;SDS011;10047;42.490;26.012;2022-12-11T09:21:40;15.20;;;3.90;;
19776;SDS011;10047;42.490;26.012;2022-12-11T09:24:08;14.98;;;4.60;;
19776;SDS011;10047;42.490;26.012;2022-12-11T09:26:35;23.42;;;4.72;;
19776;SDS011;10047;42.490;26.012;2022-12-11T09:29:01;15.80;;;4.10;;
19776;SDS011;10047;42.490;26.012;2022-12-11T09:31:29;17.08;;;4.22;;
19776;SDS011;10047;42.490;26.012;2022-12-11T09:33:57;16.35;;;3.90;;
19776;SDS011;10047;42.490;26.012;2022-12-11T09:36:24;15.00;;;3.88;;
19776;SDS011;10047;42.490;26.012;2022-12-11T09:38:51;16.58;;;4.28;;
19776;SDS011;10047;42.490;26.012;2022-12-11T09:46:13;16.58;;;3.88;;
19776;SDS011;10047;42.490;26.012;2022-12-11T09:48:40;13.98;;;3.78;;
19776;SDS011;10047;42.490;26.012;2022-12-11T09:51:13;10.70;;;3.75;;
19776;SDS011;10047;42.490;26.012;2022-12-11T09:54:00;17.52;;;5.00;;
19776;SDS011;10047;42.490;26.012;2022-12-11T09:56:32;16.45;;;4.43;;
19776;SDS011;10047;42.490;26.012;2022-12-11T10:07:10;12.05;;;2.88;;
19776;SDS011;10047;42.490;26.012;2022-12-11T10:09:41;13.73;;;3.45;;
19776;SDS011;10047;42.490;26.012;2022-12-11T10:18:03;16.42;;;4.50;;
19776;SDS011;10047;42.490;26.012;2022-12-11T10:20:34;12.55;;;3.85;;
19776;SDS011;10047;42.490;26.012;2022-12-11T10:23:08;14.18;;;4.95;;
19776;SDS011;10047;42.490;26.012;2022-12-11T10:25:45;11.48;;;4.22;;
19776;SDS011;10047;42.490;26.012;2022-12-11T10:28:18;12.13;;;4.63;;
19776;SDS011;10047;42.490;26.012;2022-12-11T10:31:02;13.27;;;4.63;;
19776;SDS011;10047;42.490;26.012;2022-12-11T10:33:58;16.75;;;5.72;;
19776;SDS011;10047;42.490;26.012;2022-12-11T10:36:38;16.25;;;4.70;;
19776;SDS011;10047;42.490;26.012;2022-12-11T10:39:18;17.25;;;4.88;;
19776;SDS011;10047;42.490;26.012;2022-12-11T10:41:46;18.77;;;5.45;;
19776;SDS011;10047;42.490;26.012;2022-12-11T10:44:14;15.13;;;4.15;;
19776;SDS011;10047;42.490;26.012;2022-12-11T10:46:44;15.98;;;6.90;;
19776;SDS011;10047;42.490;26.012;2022-12-11T10:49:24;13.85;;;3.55;;
19776;SDS011;10047;42.490;26.012;2022-12-11T10:51:51;11.20;;;3.20;;
19776;SDS011;10047;42.490;26.012;2022-12-11T10:54:35;16.63;;;4.35;;
19776;SDS011;10047;42.490;26.012;2022-12-11T10:57:03;13.77;;;4.20;;
19776;SDS011;10047;42.490;26.012;2022-12-11T11:02:43;23.02;;;7.25;;
19776;SDS011;10047;42.490;26.012;2022-12-11T11:05:10;16.00;;;4.28;;
19776;SDS011;10047;42.490;26.012;2022-12-11T11:07:38;17.08;;;7.85;;
19776;SDS011;10047;42.490;26.012;2022-12-11T11:10:15;19.30;;;7.97;;
19776;SDS011;10047;42.490;26.012;2022-12-11T11:12:46;21.52;;;8.80;;
19776;SDS011;10047;42.490;26.012;2022-12-11T11:15:21;15.18;;;4.03;;
19776;SDS011;10047;42.490;26.012;2022-12-11T11:17:53;16.30;;;7.63;;
19776;SDS011;10047;42.490;26.012;2022-12-11T11:20:25;26.20;;;12.82;;
19776;SDS011;10047;42.490;26.012;2022-12-11T11:22:53;14.10;;;7.05;;
19776;SDS011;10047;42.490;26.012;2022-12-11T11:25:28;16.17;;;5.93;;
19776;SDS011;10047;42.490;26.012;2022-12-11T11:28:05;13.65;;;3.90;;
19776;SDS011;10047;42.490;26.012;2022-12-11T11:30:39;28.77;;;14.23;;
19776;SDS011;10047;42.490;26.012;2022-12-11T11:35:49;63.35;;;26.95;;
19776;SDS011;10047;42.490;26.012;2022-12-11T11:38:18;15.45;;;3.85;;
19776;SDS011;10047;42.490;26.012;2022-12-11T11:46:00;13.73;;;5.03;;
19776;SDS011;10047;42.490;26.012;2022-12-11T11:51:16;20.83;;;8.38;;
19776;SDS011;10047;42.490;26.012;2022-12-11T11:53:48;28.38;;;10.23;;
19776;SDS011;10047;42.490;26.012;2022-12-11T11:58:42;13.00;;;4.13;;
19776;SDS011;10047;42.490;26.012;2022-12-11T12:01:24;16.23;;;4.07;;
19776;SDS011;10047;42.490;26.012;2022-12-11T12:03:50;13.43;;;4.72;;
19776;SDS011;10047;42.490;26.012;2022-12-11T12:12:26;28.55;;;10.80;;
19776;SDS011;10047;42.490;26.012;2022-12-11T12:15:14;23.70;;;9.00;;
19776;SDS011;10047;42.490;26.012;2022-12-11T12:22:53;17.08;;;3.78;;
19776;SDS011;10047;42.490;26.012;2022-12-11T12:25:40;16.30;;;3.42;;
19776;SDS011;10047;42.490;26.012;2022-12-11T12:28:57;16.10;;;3.53;;
19776;SDS011;10047;42.490;26.012;2022-12-11T12:34:01;16.60;;;3.50;;
19776;SDS011;10047;42.490;26.012;2022-12-11T12:39:39;15.07;;;3.20;;
19776;SDS011;10047;42.490;26.012;2022-12-11T12:44:39;20.65;;;3.47;;
19776;SDS011;10047;42.490;26.012;2022-12-11T12:47:12;15.45;;;3.78;;
19776;SDS011;10047;42.490;26.012;2022-12-11T12:49:42;16.38;;;3.05;;
19776;SDS011;10047;42.490;26.012;2022-12-11T12:52:14;18.88;;;4.65;;
19776;SDS011;10047;42.490;26.012;2022-12-11T12:54:44;17.25;;;3.50;;
19776;SDS011;10047;42.490;26.012;2022-12-11T12:57:32;17.45;;;3.65;;
19776;SDS011;10047;42.490;26.012;2022-12-11T12:59:59;20.80;;;3.50;;
19776;SDS011;10047;42.490;26.012;2022-12-11T13:02:24;15.52;;;3.30;;
19776;SDS011;10047;42.490;26.012;2022-12-11T13:05:02;13.85;;;2.92;;
19776;SDS011;10047;42.490;26.012;2022-12-11T13:07:31;18.33;;;4.78;;
19776;SDS011;10047;42.490;26.012;2022-12-11T13:09:59;20.33;;;3.72;;
19776;SDS011;10047;42.490;26.012;2022-12-11T13:12:45;12.52;;;3.78;;
19776;SDS011;10047;42.490;26.012;2022-12-11T13:15:27;12.85;;;3.10;;
19776;SDS011;10047;42.490;26.012;2022-12-11T13:17:59;13.80;;;3.47;;
19776;SDS011;10047;42.490;26.012;2022-12-11T13:20:28;14.25;;;3.22;;
19776;SDS011;10047;42.490;26.012;2022-12-11T13:23:07;15.55;;;3.67;;
19776;SDS011;10047;42.490;26.012;2022-12-11T13:25:50;11.85;;;3.38;;
19776;SDS011;10047;42.490;26.012;2022-12-11T13:33:43;15.25;;;3.45;;
19776;SDS011;10047;42.490;26.012;2022-12-11T13:38:44;18.50;;;4.90;;
19776;SDS011;10047;42.490;26.012;2022-12-11T13:41:12;19.52;;;4.05;;
19776;SDS011;10047;42.490;26.012;2022-12-11T13:43:38;17.67;;;3.85;;
19776;SDS011;10047;42.490;26.012;2022-12-11T13:46:07;14.38;;;3.85;;
19776;SDS011;10047;42.490;26.012;2022-12-11T13:48:36;22.60;;;4.95;;
19776;SDS011;10047;42.490;26.012;2022-12-11T13:51:04;16.85;;;3.55;;
19776;SDS011;10047;42.490;26.012;2022-12-11T13:53:30;23.55;;;4.00;;
19776;SDS011;10047;42.490;26.012;2022-12-11T13:56:03;21.20;;;4.00;;
19776;SDS011;10047;42.490;26.012;2022-12-11T13:58:34;15.90;;;3.85;;
19776;SDS011;10047;42.490;26.012;2022-12-11T14:01:13;15.25;;;3.47;;
19776;SDS011;10047;42.490;26.012;2022-12-11T14:03:54;14.55;;;3.33;;
19776;SDS011;10047;42.490;26.012;2022-12-11T14:06:20;15.75;;;3.67;;
19776;SDS011;10047;42.490;26.012;2022-12-11T14:08:47;18.60;;;4.40;;
19776;SDS011;10047;42.490;26.012;2022-12-11T14:11:20;18.60;;;4.60;;
19776;SDS011;10047;42.490;26.012;2022-12-11T14:13:52;14.77;;;2.97;;
19776;SDS011;10047;42.490;26.012;2022-12-11T14:16:20;13.15;;;4.10;;
19776;SDS011;10047;42.490;26.012;2022-12-11T14:18:48;18.05;;;4.32;;
19776;SDS011;10047;42.490;26.012;2022-12-11T14:21:21;14.38;;;3.38;;
19776;SDS011;10047;42.490;26.012;2022-12-11T14:23:56;14.82;;;3.20;;
19776;SDS011;10047;42.490;26.012;2022-12-11T14:26:27;12.25;;;3.17;;
19776;SDS011;10047;42.490;26.012;2022-12-11T14:28:56;12.70;;;2.85;;
19776;SDS011;10047;42.490;26.012;2022-12-11T14:31:27;16.15;;;3.90;;
19776;SDS011;10047;42.490;26.012;2022-12-11T14:33:59;18.50;;;3.47;;
19776;SDS011;10047;42.490;26.012;2022-12-11T14:36:32;18.65;;;3.65;;
19776;SDS011;10047;42.490;26.012;2022-12-11T14:39:33;19.92;;;5.47;;
19776;SDS011;10047;42.490;26.012;2022-12-11T14:42:04;15.85;;;3.83;;
19776;SDS011;10047;42.490;26.012;2022-12-11T14:44:48;10.75;;;3.22;;
19776;SDS011;10047;42.490;26.012;2022-12-11T14:47:19;17.55;;;4.15;;
19776;SDS011;10047;42.490;26.012;2022-12-11T14:50:02;19.13;;;4.60;;
19776;SDS011;10047;42.490;26.012;2022-12-11T14:52:34;22.20;;;6.20;;
19776;SDS011;10047;42.490;26.012;2022-12-11T14:55:13;25.73;;;11.27;;
19776;SDS011;10047;42.490;26.012;2022-12-11T14:57:43;17.88;;;4.90;;
19776;SDS011;10047;42.490;26.012;2022-12-11T15:02:54;14.98;;;3.28;;
19776;SDS011;10047;42.490;26.012;2022-12-11T15:05:29;16.48;;;4.35;;
19776;SDS011;10047;42.490;26.012;2022-12-11T15:07:57;13.25;;;2.60;;
19776;SDS011;10047;42.490;26.012;2022-12-11T15:10:27;16.45;;;3.17;;
19776;SDS011;10047;42.490;26.012;2022-12-11T15:12:59;13.13;;;3.15;;
19776;SDS011;10047;42.490;26.012;2022-12-11T15:15:25;13.75;;;2.80;;
19776;SDS011;10047;42.490;26.012;2022-12-11T15:17:53;16.85;;;3.40;;
19776;SDS011;10047;42.490;26.012;2022-12-11T15:20:20;14.65;;;4.10;;
19776;SDS011;10047;42.490;26.012;2022-12-11T15:22:50;11.15;;;2.90;;
19776;SDS011;10047;42.490;26.012;2022-12-11T15:25:27;12.02;;;2.83;;
19776;SDS011;10047;42.490;26.012;2022-12-11T15:27:55;12.27;;;3.08;;
19776;SDS011;10047;42.490;26.012;2022-12-11T15:33:00;16.05;;;3.28;;
19776;SDS011;10047;42.490;26.012;2022-12-11T15:35:49;15.90;;;3.40;;
19776;SDS011;10047;42.490;26.012;2022-12-11T15:38:28;14.13;;;2.80;;
19776;SDS011;10047;42.490;26.012;2022-12-11T15:41:02;12.57;;;2.70;;
19776;SDS011;10047;42.490;26.012;2022-12-11T15:43:28;21.90;;;8.73;;
19776;SDS011;10047;42.490;26.012;2022-12-11T15:46:00;13.88;;;2.58;;
19776;SDS011;10047;42.490;26.012;2022-12-11T15:48:26;14.95;;;2.75;;
19776;SDS011;10047;42.490;26.012;2022-12-11T15:50:52;14.27;;;2.55;;
19776;SDS011;10047;42.490;26.012;2022-12-11T15:53:18;18.80;;;3.03;;
19776;SDS011;10047;42.490;26.012;2022-12-11T15:55:44;15.50;;;2.63;;
19776;SDS011;10047;42.490;26.012;2022-12-11T15:58:14;16.42;;;2.70;;
19776;SDS011;10047;42.490;26.012;2022-12-11T16:00:42;12.05;;;3.00;;